createdAt,value
2023-05-19T00:00:33.721Z,15.65
2023-05-19T00:03:00.465Z,17.67
2023-05-19T00:05:27.242Z,16.35
2023-05-19T00:07:55.180Z,14.30
2023-05-19T00:10:21.771Z,18.33
2023-05-19T00:12:49.169Z,21.35
2023-05-19T00:15:15.740Z,19.38
2023-05-19T00:17:42.154Z,15.80
2023-05-19T00:20:08.912Z,16.90
2023-05-19T00:22:35.334Z,18.08
2023-05-19T00:25:01.732Z,19.25
2023-05-19T00:27:28.228Z,16.17
2023-05-19T00:29:54.609Z,17.40
2023-05-19T00:32:20.964Z,21.80
2023-05-19T00:34:47.400Z,16.67
2023-05-19T00:37:13.776Z,11.68
2023-05-19T00:39:40.170Z,20.15
2023-05-19T00:42:06.696Z,18.30
2023-05-19T00:44:33.093Z,16.87
2023-05-19T00:46:59.567Z,17.60
2023-05-19T00:49:26.141Z,18.63
2023-05-19T00:51:52.932Z,20.50
2023-05-19T00:54:20.496Z,20.52
2023-05-19T00:56:47.253Z,19.53
2023-05-19T00:59:13.636Z,19.52
2023-05-19T01:01:40.025Z,18.90
2023-05-19T01:04:06.574Z,16.30
2023-05-19T01:06:33.367Z,19.33
2023-05-19T01:08:59.761Z,19.67
2023-05-19T01:11:26.229Z,21.63
2023-05-19T01:13:52.643Z,20.27
2023-05-19T01:16:22.675Z,22.52
2023-05-19T01:19:07.408Z,21.77
2023-05-19T01:21:52.204Z,18.60
2023-05-19T01:24:21.417Z,19.23
2023-05-19T01:27:09.415Z,19.08
2023-05-19T01:29:35.914Z,21.60
2023-05-19T01:32:04.632Z,20.45
2023-05-19T01:34:31.239Z,22.53
2023-05-19T01:36:58.803Z,18.38
2023-05-19T01:39:25.512Z,21.92
2023-05-19T01:41:52.244Z,18.83
2023-05-19T01:44:19.148Z,19.25
2023-05-19T01:46:45.672Z,20.80
2023-05-19T01:49:12.740Z,24.10
2023-05-19T01:51:39.214Z,19.40
2023-05-19T01:54:05.628Z,21.48
2023-05-19T01:56:52.352Z,294.05
2023-05-19T01:59:34.304Z,350.53
2023-05-19T02:02:02.284Z,400.30
2023-05-19T02:04:38.129Z,287.55
2023-05-19T02:07:07.781Z,262.02
2023-05-19T02:09:44.913Z,69.72
2023-05-19T02:12:11.381Z,240.00
2023-05-19T02:15:00.604Z,380.88
2023-05-19T02:17:29.344Z,353.20
2023-05-19T02:19:55.778Z,390.25
2023-05-19T02:22:22.159Z,336.77
2023-05-19T02:24:48.567Z,421.33
2023-05-19T02:27:14.925Z,49.00
2023-05-19T02:29:41.286Z,89.43
2023-05-19T02:32:07.861Z,319.95
2023-05-19T02:34:34.323Z,464.73
2023-05-19T02:37:00.741Z,282.83
2023-05-19T02:39:27.321Z,102.63
2023-05-19T02:41:53.753Z,206.18
2023-05-19T02:44:20.170Z,280.85
2023-05-19T02:46:46.901Z,359.70
2023-05-19T02:49:13.464Z,397.13
2023-05-19T02:51:39.825Z,376.63
2023-05-19T02:54:06.282Z,336.70
2023-05-19T02:56:32.689Z,31.67
2023-05-19T02:58:59.084Z,32.55
2023-05-19T03:01:25.526Z,99.47
2023-05-19T03:03:52.033Z,97.55
2023-05-19T03:06:18.784Z,94.05
2023-05-19T03:08:45.334Z,75.78
2023-05-19T03:11:11.824Z,53.58
2023-05-19T03:13:38.226Z,41.07
2023-05-19T03:16:04.781Z,41.70
2023-05-19T03:18:31.214Z,39.47
2023-05-19T03:20:57.620Z,38.42
2023-05-19T03:23:24.053Z,48.63
2023-05-19T03:25:50.446Z,33.43
2023-05-19T03:28:16.816Z,26.48
2023-05-19T03:30:43.323Z,26.10
2023-05-19T03:33:09.788Z,26.85
2023-05-19T03:35:36.347Z,26.50
2023-05-19T03:38:02.906Z,20.33
2023-05-19T03:40:29.296Z,20.40
2023-05-19T03:42:55.692Z,27.73
2023-05-19T03:45:22.169Z,23.75
2023-05-19T03:47:48.643Z,29.63
2023-05-19T03:50:15.051Z,28.10
2023-05-19T03:52:41.513Z,26.50
2023-05-19T03:55:08.227Z,25.65
2023-05-19T03:57:34.616Z,23.80
2023-05-19T04:00:01.128Z,24.65
2023-05-19T04:02:27.641Z,21.70
2023-05-19T04:04:54.347Z,25.67
2023-05-19T04:07:20.838Z,19.58
2023-05-19T04:09:47.275Z,20.10
2023-05-19T04:12:13.664Z,25.98
2023-05-19T04:14:40.159Z,25.20
2023-05-19T04:17:06.549Z,24.75
2023-05-19T04:19:32.964Z,26.25
2023-05-19T04:21:59.460Z,26.83
2023-05-19T04:24:25.850Z,27.40
2023-05-19T04:26:52.431Z,30.50
2023-05-19T04:29:18.919Z,27.40
2023-05-19T04:31:45.630Z,21.52
2023-05-19T04:34:12.078Z,19.52
2023-05-19T04:36:39.115Z,22.70
2023-05-19T04:39:06.089Z,20.83
2023-05-19T04:41:32.640Z,18.83
2023-05-19T04:43:59.178Z,18.65
2023-05-19T04:46:26.449Z,18.10
2023-05-19T04:48:53.075Z,19.83
2023-05-19T04:51:19.648Z,20.97
2023-05-19T04:53:46.049Z,17.20
2023-05-19T04:56:12.447Z,16.98
2023-05-19T04:58:40.598Z,16.05
2023-05-19T05:01:08.251Z,20.25
2023-05-19T05:03:34.722Z,21.23
2023-05-19T05:06:01.337Z,15.55
2023-05-19T05:08:27.763Z,16.88
2023-05-19T05:10:54.344Z,19.20
2023-05-19T05:13:21.874Z,16.83
2023-05-19T05:15:48.498Z,17.97
2023-05-19T05:18:15.415Z,16.48
2023-05-19T05:20:46.139Z,19.02
2023-05-19T05:23:12.716Z,17.77
2023-05-19T05:25:39.278Z,15.35
2023-05-19T05:28:05.692Z,16.73
2023-05-19T05:30:33.265Z,15.70
2023-05-19T05:32:59.771Z,16.23
2023-05-19T05:35:26.271Z,16.65
2023-05-19T05:37:52.669Z,15.82
2023-05-19T05:40:19.161Z,16.53
2023-05-19T05:42:45.626Z,17.02
2023-05-19T05:45:12.120Z,20.17
2023-05-19T05:47:38.635Z,15.30
2023-05-19T05:50:06.132Z,17.85
2023-05-19T05:52:32.888Z,14.40
2023-05-19T05:54:59.434Z,13.25
2023-05-19T05:57:25.897Z,12.98
2023-05-19T05:59:52.358Z,14.63
2023-05-19T06:02:18.908Z,17.27
2023-05-19T06:04:45.380Z,11.63
2023-05-19T06:07:11.923Z,15.25
2023-05-19T06:09:38.342Z,19.70
2023-05-19T06:12:05.318Z,17.88
2023-05-19T06:14:31.710Z,17.50
2023-05-19T06:16:58.104Z,20.77
2023-05-19T06:19:24.675Z,18.98
2023-05-19T06:21:51.578Z,19.52
2023-05-19T06:24:17.960Z,20.67
2023-05-19T06:26:44.432Z,17.50
2023-05-19T06:29:10.828Z,15.97
2023-05-19T06:31:37.226Z,21.00
2023-05-19T06:34:03.744Z,16.73
2023-05-19T06:36:30.179Z,19.55
2023-05-19T06:38:56.562Z,17.67
2023-05-19T06:41:23.099Z,19.33
2023-05-19T06:43:49.637Z,19.17
2023-05-19T06:46:16.076Z,19.77
2023-05-19T06:48:42.591Z,20.15
2023-05-19T06:51:08.940Z,19.90
2023-05-19T06:53:35.350Z,25.23
2023-05-19T06:56:01.823Z,21.45
2023-05-19T06:58:28.282Z,19.10
2023-05-19T07:00:54.661Z,20.42
2023-05-19T07:03:21.303Z,19.48
2023-05-19T07:05:48.100Z,21.77
2023-05-19T07:08:14.548Z,21.08
2023-05-19T07:10:40.972Z,28.00
2023-05-19T07:13:07.337Z,18.02
2023-05-19T07:15:36.812Z,20.75
2023-05-19T07:18:03.364Z,18.73
2023-05-19T07:20:29.804Z,21.35
2023-05-19T07:22:56.196Z,18.25
2023-05-19T07:25:23.250Z,20.05
2023-05-19T07:27:55.627Z,18.23
2023-05-19T07:30:22.010Z,17.37
2023-05-19T07:32:48.617Z,21.75
2023-05-19T07:35:15.025Z,20.02
2023-05-19T07:37:41.417Z,19.02
2023-05-19T07:40:08.151Z,19.40
2023-05-19T07:42:34.706Z,18.90
2023-05-19T07:45:01.091Z,20.00
2023-05-19T07:47:27.628Z,18.08
2023-05-19T07:49:54.064Z,17.15
2023-05-19T07:52:20.491Z,19.02
2023-05-19T07:54:46.920Z,15.73
2023-05-19T07:57:13.390Z,15.45
2023-05-19T07:59:39.943Z,14.82
2023-05-19T08:02:06.524Z,17.25
2023-05-19T08:04:33.199Z,15.82
2023-05-19T08:06:59.695Z,19.07
2023-05-19T08:09:26.119Z,16.45
2023-05-19T08:11:52.530Z,15.52
2023-05-19T08:14:18.937Z,18.27
2023-05-19T08:16:45.342Z,16.70
2023-05-19T08:19:11.767Z,13.73
2023-05-19T08:21:38.180Z,17.85
2023-05-19T08:24:04.752Z,20.45
2023-05-19T08:26:31.154Z,17.77
2023-05-19T08:28:57.789Z,18.33
2023-05-19T08:31:24.318Z,14.30
2023-05-19T08:33:50.880Z,17.20
2023-05-19T08:36:17.281Z,15.40
2023-05-19T08:38:43.723Z,15.65
2023-05-19T08:41:10.173Z,19.58
2023-05-19T08:43:36.834Z,16.70
2023-05-19T08:46:03.756Z,17.85
2023-05-19T08:48:30.255Z,15.20
2023-05-19T08:51:11.236Z,19.55
2023-05-19T08:53:39.455Z,12.75
2023-05-19T08:56:11.468Z,15.73
2023-05-19T08:58:42.385Z,27.10
2023-05-19T09:01:09.395Z,16.70
2023-05-19T09:03:36.515Z,20.02
2023-05-19T09:06:04.165Z,18.60
2023-05-19T09:08:30.641Z,15.03
2023-05-19T09:10:57.015Z,18.10
2023-05-19T09:13:23.800Z,17.92
2023-05-19T09:15:51.456Z,18.45
2023-05-19T09:18:17.880Z,24.85
2023-05-19T09:20:44.760Z,18.43
2023-05-19T09:23:14.524Z,17.90
2023-05-19T09:25:47.609Z,15.13
2023-05-19T09:28:14.018Z,23.52
2023-05-19T09:30:40.457Z,26.83
2023-05-19T09:33:06.998Z,30.27
2023-05-19T09:35:34.810Z,27.67
2023-05-19T09:38:01.511Z,23.08
2023-05-19T09:40:28.352Z,23.38
2023-05-19T09:42:54.834Z,28.02
2023-05-19T09:45:21.278Z,20.90
2023-05-19T09:47:47.757Z,17.98
2023-05-19T09:50:14.272Z,17.95
2023-05-19T09:52:43.737Z,15.18
2023-05-19T09:55:11.641Z,18.38
2023-05-19T09:57:38.624Z,17.20
2023-05-19T10:00:05.860Z,13.77
2023-05-19T10:02:32.892Z,19.63
2023-05-19T10:05:00.242Z,17.33
2023-05-19T10:07:26.898Z,16.25
2023-05-19T10:09:56.121Z,13.03
2023-05-19T10:12:23.870Z,19.17
2023-05-19T10:14:50.391Z,19.83
2023-05-19T10:17:16.893Z,26.08
2023-05-19T10:19:43.842Z,24.40
2023-05-19T10:22:10.243Z,22.30
2023-05-19T10:24:37.682Z,15.90
2023-05-19T10:27:06.807Z,13.02
2023-05-19T10:29:48.690Z,20.95
2023-05-19T10:32:17.618Z,18.50
2023-05-19T10:34:59.547Z,15.03
2023-05-19T10:37:37.596Z,18.60
2023-05-19T10:40:10.882Z,15.25
2023-05-19T10:42:44.084Z,13.80
2023-05-19T10:45:24.546Z,10.93
2023-05-19T10:47:51.124Z,18.03
2023-05-19T10:50:17.647Z,17.27
2023-05-19T10:52:44.100Z,17.30
2023-05-19T10:55:12.946Z,15.23
2023-05-19T10:57:53.260Z,16.65
2023-05-19T11:00:29.921Z,15.63
2023-05-19T11:03:12.768Z,13.25
2023-05-19T11:05:39.403Z,15.60
2023-05-19T11:08:06.292Z,12.73
2023-05-19T11:10:32.719Z,12.57
2023-05-19T11:12:59.123Z,13.37
2023-05-19T11:15:26.503Z,17.45
2023-05-19T11:17:53.256Z,17.60
2023-05-19T11:20:26.533Z,11.63
2023-05-19T11:23:14.943Z,11.85
2023-05-19T11:25:44.263Z,16.67
2023-05-19T11:28:10.898Z,16.60
2023-05-19T11:30:37.694Z,17.42
2023-05-19T11:33:04.655Z,12.80
2023-05-19T11:35:33.237Z,11.25
2023-05-19T11:38:01.880Z,11.40
2023-05-19T11:40:29.054Z,12.85
2023-05-19T11:42:55.782Z,12.73
2023-05-19T11:45:25.635Z,13.60
2023-05-19T11:48:01.395Z,11.32
2023-05-19T11:50:30.621Z,12.43
2023-05-19T11:52:57.086Z,14.70
2023-05-19T11:55:23.630Z,9.90
2023-05-19T11:58:02.973Z,12.25
2023-05-19T12:00:34.734Z,9.55
2023-05-19T12:03:01.231Z,12.83
2023-05-19T12:05:27.819Z,11.38
2023-05-19T12:07:54.247Z,13.07
2023-05-19T12:10:24.861Z,11.40
2023-05-19T12:12:51.288Z,14.15
2023-05-19T12:15:21.247Z,10.93
2023-05-19T12:17:51.422Z,13.60
2023-05-19T12:20:20.962Z,12.13
2023-05-19T12:22:47.750Z,11.18
2023-05-19T12:25:15.309Z,71.07
2023-05-19T12:27:42.982Z,229.00
2023-05-19T12:30:10.067Z,79.32
2023-05-19T12:32:36.810Z,17.48
2023-05-19T12:35:04.378Z,16.55
2023-05-19T12:37:30.867Z,11.98
2023-05-19T12:39:57.612Z,11.43
2023-05-19T12:42:26.582Z,11.10
2023-05-19T12:44:54.056Z,11.00
2023-05-19T12:47:21.013Z,19.33
2023-05-19T12:50:13.535Z,13.30
2023-05-19T12:52:44.149Z,9.47
2023-05-19T12:55:10.712Z,10.52
2023-05-19T12:57:38.540Z,10.25
2023-05-19T13:00:06.648Z,13.80
2023-05-19T13:02:34.721Z,12.95
2023-05-19T13:05:02.647Z,10.23
2023-05-19T13:07:29.884Z,13.45
2023-05-19T13:09:56.290Z,13.13
2023-05-19T13:12:23.367Z,13.85
2023-05-19T13:14:50.476Z,14.10
